sensor_id;sensor_type;location;lat;lon;timestamp;P1;durP1;ratioP1;P2;durP2;ratioP2
56299;SDS011;42209;6.376;-10.782;2023-11-21T00:00:47;7.57;;;4.57;;
56299;SDS011;42209;6.376;-10.782;2023-11-21T00:05:44;6.72;;;4.45;;
56299;SDS011;42209;6.376;-10.782;2023-11-21T00:08:12;5.82;;;3.47;;
56299;SDS011;42209;6.376;-10.782;2023-11-21T00:10:41;9.00;;;4.60;;
56299;SDS011;42209;6.376;-10.782;2023-11-21T00:15:38;7.85;;;4.53;;
56299;SDS011;42209;6.376;-10.782;2023-11-21T00:18:35;7.22;;;3.75;;
56299;SDS011;42209;6.376;-10.782;2023-11-21T00:21:06;6.07;;;4.75;;
56299;SDS011;42209;6.376;-10.782;2023-11-21T00:23:38;7.18;;;4.60;;
56299;SDS011;42209;6.376;-10.782;2023-11-21T00:26:07;8.07;;;4.70;;
56299;SDS011;42209;6.376;-10.782;2023-11-21T00:28:36;5.95;;;3.95;;
56299;SDS011;42209;6.376;-10.782;2023-11-21T00:33:33;9.00;;;4.78;;
56299;SDS011;42209;6.376;-10.782;2023-11-21T00:38:30;4.68;;;3.90;;
56299;SDS011;42209;6.376;-10.782;2023-11-21T00:41:00;9.98;;;5.28;;
56299;SDS011;42209;6.376;-10.782;2023-11-21T00:43:29;8.13;;;4.40;;
56299;SDS011;42209;6.376;-10.782;2023-11-21T00:45:57;6.97;;;4.63;;
56299;SDS011;42209;6.376;-10.782;2023-11-21T00:48:25;7.35;;;3.95;;
56299;SDS011;42209;6.376;-10.782;2023-11-21T00:50:55;6.47;;;4.32;;
56299;SDS011;42209;6.376;-10.782;2023-11-21T00:53:24;8.65;;;4.68;;
56299;SDS011;42209;6.376;-10.782;2023-11-21T00:55:52;6.10;;;4.35;;
56299;SDS011;42209;6.376;-10.782;2023-11-21T00:58:21;8.02;;;4.50;;
56299;SDS011;42209;6.376;-10.782;2023-11-21T01:00:51;6.32;;;4.55;;
56299;SDS011;42209;6.376;-10.782;2023-11-21T01:03:20;6.90;;;4.15;;
56299;SDS011;42209;6.376;-10.782;2023-11-21T01:05:50;9.20;;;4.13;;
56299;SDS011;42209;6.376;-10.782;2023-11-21T01:08:18;7.07;;;4.60;;
56299;SDS011;42209;6.376;-10.782;2023-11-21T01:10:46;11.07;;;4.55;;
56299;SDS011;42209;6.376;-10.782;2023-11-21T01:13:15;8.80;;;4.88;;
56299;SDS011;42209;6.376;-10.782;2023-11-21T01:15:43;11.40;;;5.72;;
56299;SDS011;42209;6.376;-10.782;2023-11-21T01:18:12;7.70;;;4.82;;
56299;SDS011;42209;6.376;-10.782;2023-11-21T01:20:41;7.57;;;5.68;;
56299;SDS011;42209;6.376;-10.782;2023-11-21T01:23:09;8.77;;;4.80;;
56299;SDS011;42209;6.376;-10.782;2023-11-21T01:25:38;7.13;;;4.75;;
56299;SDS011;42209;6.376;-10.782;2023-11-21T01:28:09;6.55;;;4.50;;
56299;SDS011;42209;6.376;-10.782;2023-11-21T01:30:37;9.25;;;5.28;;
56299;SDS011;42209;6.376;-10.782;2023-11-21T01:33:06;6.72;;;4.53;;
56299;SDS011;42209;6.376;-10.782;2023-11-21T01:38:03;6.20;;;3.97;;
56299;SDS011;42209;6.376;-10.782;2023-11-21T01:40:31;5.85;;;4.50;;
56299;SDS011;42209;6.376;-10.782;2023-11-21T01:43:00;8.43;;;4.85;;
56299;SDS011;42209;6.376;-10.782;2023-11-21T01:45:28;7.18;;;4.35;;
56299;SDS011;42209;6.376;-10.782;2023-11-21T01:47:57;6.78;;;4.38;;
56299;SDS011;42209;6.376;-10.782;2023-11-21T01:50:28;6.53;;;5.07;;
56299;SDS011;42209;6.376;-10.782;2023-11-21T01:52:56;8.18;;;5.35;;
56299;SDS011;42209;6.376;-10.782;2023-11-21T01:55:25;5.70;;;4.53;;
56299;SDS011;42209;6.376;-10.782;2023-11-21T01:57:55;7.93;;;5.32;;
56299;SDS011;42209;6.376;-10.782;2023-11-21T02:00:24;6.80;;;4.82;;
56299;SDS011;42209;6.376;-10.782;2023-11-21T02:02:55;5.45;;;4.43;;
56299;SDS011;42209;6.376;-10.782;2023-11-21T02:05:23;6.22;;;5.03;;
56299;SDS011;42209;6.376;-10.782;2023-11-21T02:07:52;7.35;;;4.93;;
56299;SDS011;42209;6.376;-10.782;2023-11-21T02:10:20;6.65;;;4.47;;
56299;SDS011;42209;6.376;-10.782;2023-11-21T02:12:49;8.95;;;5.20;;
56299;SDS011;42209;6.376;-10.782;2023-11-21T02:15:18;9.15;;;4.90;;
56299;SDS011;42209;6.376;-10.782;2023-11-21T02:17:48;7.18;;;4.68;;
56299;SDS011;42209;6.376;-10.782;2023-11-21T02:20:20;9.45;;;5.57;;
56299;SDS011;42209;6.376;-10.782;2023-11-21T02:22:50;9.32;;;5.60;;
56299;SDS011;42209;6.376;-10.782;2023-11-21T02:25:20;7.63;;;5.18;;
56299;SDS011;42209;6.376;-10.782;2023-11-21T02:27:48;8.75;;;5.50;;
56299;SDS011;42209;6.376;-10.782;2023-11-21T02:30:17;7.75;;;4.85;;
56299;SDS011;42209;6.376;-10.782;2023-11-21T02:35:15;7.80;;;4.57;;
56299;SDS011;42209;6.376;-10.782;2023-11-21T02:37:44;8.00;;;5.80;;
56299;SDS011;42209;6.376;-10.782;2023-11-21T02:40:12;8.82;;;5.13;;
56299;SDS011;42209;6.376;-10.782;2023-11-21T02:45:09;6.97;;;4.90;;
56299;SDS011;42209;6.376;-10.782;2023-11-21T02:47:38;8.95;;;5.05;;
56299;SDS011;42209;6.376;-10.782;2023-11-21T02:50:07;9.07;;;4.78;;
56299;SDS011;42209;6.376;-10.782;2023-11-21T02:52:36;8.05;;;4.90;;
56299;SDS011;42209;6.376;-10.782;2023-11-21T02:55:05;7.55;;;4.80;;
56299;SDS011;42209;6.376;-10.782;2023-11-21T02:57:34;9.82;;;5.10;;
56299;SDS011;42209;6.376;-10.782;2023-11-21T03:02:31;6.68;;;5.57;;
56299;SDS011;42209;6.376;-10.782;2023-11-21T03:05:02;8.63;;;5.72;;
56299;SDS011;42209;6.376;-10.782;2023-11-21T03:07:31;7.90;;;5.10;;
56299;SDS011;42209;6.376;-10.782;2023-11-21T03:09:59;8.23;;;5.07;;
56299;SDS011;42209;6.376;-10.782;2023-11-21T03:12:28;6.50;;;4.60;;
56299;SDS011;42209;6.376;-10.782;2023-11-21T03:14:56;9.13;;;4.88;;
56299;SDS011;42209;6.376;-10.782;2023-11-21T03:17:25;7.65;;;5.13;;
56299;SDS011;42209;6.376;-10.782;2023-11-21T03:19:54;9.32;;;5.97;;
56299;SDS011;42209;6.376;-10.782;2023-11-21T03:22:23;10.05;;;5.97;;
56299;SDS011;42209;6.376;-10.782;2023-11-21T03:24:51;7.60;;;5.47;;
56299;SDS011;42209;6.376;-10.782;2023-11-21T03:27:20;6.47;;;4.90;;
56299;SDS011;42209;6.376;-10.782;2023-11-21T03:29:49;7.65;;;5.03;;
56299;SDS011;42209;6.376;-10.782;2023-11-21T03:32:17;6.38;;;4.78;;
56299;SDS011;42209;6.376;-10.782;2023-11-21T03:37:25;9.88;;;4.65;;
56299;SDS011;42209;6.376;-10.782;2023-11-21T03:44:51;7.13;;;4.47;;
56299;SDS011;42209;6.376;-10.782;2023-11-21T03:47:20;7.82;;;4.57;;
56299;SDS011;42209;6.376;-10.782;2023-11-21T03:49:48;7.85;;;5.10;;
56299;SDS011;42209;6.376;-10.782;2023-11-21T03:52:16;7.63;;;4.72;;
56299;SDS011;42209;6.376;-10.782;2023-11-21T03:54:45;8.55;;;4.80;;
56299;SDS011;42209;6.376;-10.782;2023-11-21T03:57:13;7.30;;;4.68;;
56299;SDS011;42209;6.376;-10.782;2023-11-21T04:02:10;8.63;;;4.75;;
56299;SDS011;42209;6.376;-10.782;2023-11-21T04:04:39;6.43;;;3.75;;
56299;SDS011;42209;6.376;-10.782;2023-11-21T04:07:08;7.55;;;5.18;;
56299;SDS011;42209;6.376;-10.782;2023-11-21T04:09:36;8.43;;;4.85;;
56299;SDS011;42209;6.376;-10.782;2023-11-21T04:12:05;8.23;;;4.88;;
56299;SDS011;42209;6.376;-10.782;2023-11-21T04:17:02;7.57;;;4.63;;
56299;SDS011;42209;6.376;-10.782;2023-11-21T04:19:30;6.43;;;4.38;;
56299;SDS011;42209;6.376;-10.782;2023-11-21T04:21:59;7.63;;;4.70;;
56299;SDS011;42209;6.376;-10.782;2023-11-21T04:24:27;6.60;;;4.65;;
56299;SDS011;42209;6.376;-10.782;2023-11-21T04:29:24;6.35;;;4.00;;
56299;SDS011;42209;6.376;-10.782;2023-11-21T04:31:53;6.07;;;4.30;;
56299;SDS011;42209;6.376;-10.782;2023-11-21T04:34:22;7.68;;;4.57;;
56299;SDS011;42209;6.376;-10.782;2023-11-21T04:36:53;9.50;;;4.57;;
56299;SDS011;42209;6.376;-10.782;2023-11-21T04:39:22;8.05;;;4.55;;
56299;SDS011;42209;6.376;-10.782;2023-11-21T04:44:19;8.77;;;5.68;;
56299;SDS011;42209;6.376;-10.782;2023-11-21T04:46:47;6.55;;;4.82;;
56299;SDS011;42209;6.376;-10.782;2023-11-21T04:49:16;8.75;;;5.10;;
56299;SDS011;42209;6.376;-10.782;2023-11-21T04:51:45;8.02;;;4.85;;
56299;SDS011;42209;6.376;-10.782;2023-11-21T04:54:13;6.85;;;4.40;;
56299;SDS011;42209;6.376;-10.782;2023-11-21T04:56:42;7.15;;;5.35;;
56299;SDS011;42209;6.376;-10.782;2023-11-21T05:01:38;6.35;;;4.65;;
56299;SDS011;42209;6.376;-10.782;2023-11-21T05:04:07;8.23;;;4.97;;
56299;SDS011;42209;6.376;-10.782;2023-11-21T05:06:36;7.32;;;5.15;;
56299;SDS011;42209;6.376;-10.782;2023-11-21T05:09:04;6.95;;;5.18;;
56299;SDS011;42209;6.376;-10.782;2023-11-21T05:11:33;7.28;;;4.22;;
56299;SDS011;42209;6.376;-10.782;2023-11-21T05:14:01;6.70;;;4.63;;
56299;SDS011;42209;6.376;-10.782;2023-11-21T05:16:29;6.07;;;3.85;;
56299;SDS011;42209;6.376;-10.782;2023-11-21T05:18:59;5.90;;;4.85;;
56299;SDS011;42209;6.376;-10.782;2023-11-21T05:21:28;6.97;;;4.63;;
56299;SDS011;42209;6.376;-10.782;2023-11-21T05:23:56;7.75;;;4.97;;
56299;SDS011;42209;6.376;-10.782;2023-11-21T05:26:25;9.63;;;4.95;;
56299;SDS011;42209;6.376;-10.782;2023-11-21T05:28:53;7.95;;;4.28;;
56299;SDS011;42209;6.376;-10.782;2023-11-21T05:31:22;8.85;;;4.43;;
56299;SDS011;42209;6.376;-10.782;2023-11-21T05:33:50;7.10;;;4.78;;
56299;SDS011;42209;6.376;-10.782;2023-11-21T05:36:19;7.22;;;4.20;;
56299;SDS011;42209;6.376;-10.782;2023-11-21T05:38:47;8.10;;;4.72;;
56299;SDS011;42209;6.376;-10.782;2023-11-21T05:41:16;5.72;;;3.90;;
56299;SDS011;42209;6.376;-10.782;2023-11-21T05:43:44;8.80;;;4.72;;
56299;SDS011;42209;6.376;-10.782;2023-11-21T05:46:13;7.88;;;4.57;;
56299;SDS011;42209;6.376;-10.782;2023-11-21T05:48:41;7.40;;;4.30;;
56299;SDS011;42209;6.376;-10.782;2023-11-21T05:51:10;6.50;;;4.10;;
56299;SDS011;42209;6.376;-10.782;2023-11-21T05:53:38;6.32;;;4.75;;
56299;SDS011;42209;6.376;-10.782;2023-11-21T05:58:35;7.72;;;4.10;;
56299;SDS011;42209;6.376;-10.782;2023-11-21T06:01:05;6.22;;;4.60;;
56299;SDS011;42209;6.376;-10.782;2023-11-21T06:03:34;5.75;;;4.68;;
56299;SDS011;42209;6.376;-10.782;2023-11-21T06:06:03;6.72;;;4.22;;
56299;SDS011;42209;6.376;-10.782;2023-11-21T06:08:32;6.47;;;4.45;;
56299;SDS011;42209;6.376;-10.782;2023-11-21T06:11:00;6.65;;;4.03;;
56299;SDS011;42209;6.376;-10.782;2023-11-21T06:13:29;6.28;;;3.75;;
56299;SDS011;42209;6.376;-10.782;2023-11-21T06:18:26;7.45;;;4.30;;
56299;SDS011;42209;6.376;-10.782;2023-11-21T06:20:55;6.28;;;3.95;;
56299;SDS011;42209;6.376;-10.782;2023-11-21T06:23:23;7.38;;;4.72;;
56299;SDS011;42209;6.376;-10.782;2023-11-21T06:25:52;5.25;;;4.25;;
56299;SDS011;42209;6.376;-10.782;2023-11-21T06:28:20;6.10;;;4.13;;
56299;SDS011;42209;6.376;-10.782;2023-11-21T06:30:49;6.25;;;4.10;;
56299;SDS011;42209;6.376;-10.782;2023-11-21T06:33:18;6.68;;;3.85;;
56299;SDS011;42209;6.376;-10.782;2023-11-21T06:35:46;4.97;;;4.18;;
56299;SDS011;42209;6.376;-10.782;2023-11-21T06:38:15;5.00;;;3.35;;
56299;SDS011;42209;6.376;-10.782;2023-11-21T06:40:44;6.85;;;4.43;;
56299;SDS011;42209;6.376;-10.782;2023-11-21T06:43:12;6.57;;;4.65;;
56299;SDS011;42209;6.376;-10.782;2023-11-21T06:45:41;6.85;;;4.22;;
56299;SDS011;42209;6.376;-10.782;2023-11-21T06:48:10;6.95;;;3.92;;
56299;SDS011;42209;6.376;-10.782;2023-11-21T06:50:38;6.13;;;3.97;;
56299;SDS011;42209;6.376;-10.782;2023-11-21T06:53:07;6.43;;;4.20;;
56299;SDS011;42209;6.376;-10.782;2023-11-21T06:55:37;8.30;;;4.88;;
56299;SDS011;42209;6.376;-10.782;2023-11-21T06:58:06;7.47;;;4.15;;
56299;SDS011;42209;6.376;-10.782;2023-11-21T07:00:34;6.05;;;4.13;;
56299;SDS011;42209;6.376;-10.782;2023-11-21T07:03:03;11.88;;;4.55;;
56299;SDS011;42209;6.376;-10.782;2023-11-21T07:05:32;6.55;;;4.22;;
56299;SDS011;42209;6.376;-10.782;2023-11-21T07:08:01;9.32;;;5.10;;
56299;SDS011;42209;6.376;-10.782;2023-11-21T07:10:32;8.93;;;4.60;;
56299;SDS011;42209;6.376;-10.782;2023-11-21T07:13:01;10.55;;;5.22;;
56299;SDS011;42209;6.376;-10.782;2023-11-21T07:15:29;10.93;;;5.68;;
56299;SDS011;42209;6.376;-10.782;2023-11-21T07:17:58;10.32;;;5.93;;
56299;SDS011;42209;6.376;-10.782;2023-11-21T07:20:26;9.63;;;5.68;;
56299;SDS011;42209;6.376;-10.782;2023-11-21T07:22:55;8.63;;;5.30;;
56299;SDS011;42209;6.376;-10.782;2023-11-21T07:25:23;11.05;;;6.53;;
56299;SDS011;42209;6.376;-10.782;2023-11-21T07:27:52;9.15;;;5.30;;
56299;SDS011;42209;6.376;-10.782;2023-11-21T07:30:20;11.93;;;6.40;;
56299;SDS011;42209;6.376;-10.782;2023-11-21T07:32:49;8.43;;;4.78;;
56299;SDS011;42209;6.376;-10.782;2023-11-21T07:35:17;9.02;;;4.30;;
56299;SDS011;42209;6.376;-10.782;2023-11-21T07:37:45;11.27;;;5.00;;
56299;SDS011;42209;6.376;-10.782;2023-11-21T07:40:14;7.32;;;4.32;;
56299;SDS011;42209;6.376;-10.782;2023-11-21T07:45:11;7.05;;;5.05;;
56299;SDS011;42209;6.376;-10.782;2023-11-21T07:50:08;7.55;;;4.43;;
56299;SDS011;42209;6.376;-10.782;2023-11-21T07:52:36;5.90;;;4.97;;
56299;SDS011;42209;6.376;-10.782;2023-11-21T07:57:33;8.10;;;4.85;;
56299;SDS011;42209;6.376;-10.782;2023-11-21T08:00:02;9.57;;;5.40;;
56299;SDS011;42209;6.376;-10.782;2023-11-21T08:02:38;9.60;;;5.00;;
56299;SDS011;42209;6.376;-10.782;2023-11-21T08:05:08;6.00;;;5.40;;
56299;SDS011;42209;6.376;-10.782;2023-11-21T08:07:48;8.80;;;5.32;;
56299;SDS011;42209;6.376;-10.782;2023-11-21T08:10:16;7.30;;;4.38;;
56299;SDS011;42209;6.376;-10.782;2023-11-21T08:12:44;6.47;;;4.70;;
56299;SDS011;42209;6.376;-10.782;2023-11-21T08:15:13;9.32;;;4.75;;
56299;SDS011;42209;6.376;-10.782;2023-11-21T08:17:42;7.45;;;4.80;;
56299;SDS011;42209;6.376;-10.782;2023-11-21T08:20:11;10.18;;;4.90;;
56299;SDS011;42209;6.376;-10.782;2023-11-21T08:22:40;10.35;;;5.38;;
56299;SDS011;42209;6.376;-10.782;2023-11-21T08:27:37;8.50;;;4.68;;
56299;SDS011;42209;6.376;-10.782;2023-11-21T08:30:06;4.90;;;3.95;;
56299;SDS011;42209;6.376;-10.782;2023-11-21T08:32:34;7.70;;;4.35;;
56299;SDS011;42209;6.376;-10.782;2023-11-21T08:35:03;10.50;;;5.22;;
56299;SDS011;42209;6.376;-10.782;2023-11-21T08:37:32;8.35;;;3.58;;
56299;SDS011;42209;6.376;-10.782;2023-11-21T08:42:29;7.68;;;4.50;;
56299;SDS011;42209;6.376;-10.782;2023-11-21T08:44:57;8.25;;;4.25;;
56299;SDS011;42209;6.376;-10.782;2023-11-21T08:47:26;8.90;;;3.97;;
56299;SDS011;42209;6.376;-10.782;2023-11-21T08:49:54;8.10;;;3.95;;
56299;SDS011;42209;6.376;-10.782;2023-11-21T08:52:23;6.43;;;4.25;;
56299;SDS011;42209;6.376;-10.782;2023-11-21T08:57:03;7.57;;;4.82;;
56299;SDS011;42209;6.376;-10.782;2023-11-21T08:59:32;7.45;;;4.55;;
56299;SDS011;42209;6.376;-10.782;2023-11-21T09:02:00;7.07;;;4.00;;
56299;SDS011;42209;6.376;-10.782;2023-11-21T09:04:29;6.82;;;5.20;;
56299;SDS011;42209;6.376;-10.782;2023-11-21T09:07:06;7.38;;;3.80;;
56299;SDS011;42209;6.376;-10.782;2023-11-21T09:09:53;8.50;;;3.97;;
56299;SDS011;42209;6.376;-10.782;2023-11-21T09:14:50;6.20;;;4.82;;
56299;SDS011;42209;6.376;-10.782;2023-11-21T09:22:15;6.85;;;4.30;;
56299;SDS011;42209;6.376;-10.782;2023-11-21T09:24:45;7.00;;;4.28;;
56299;SDS011;42209;6.376;-10.782;2023-11-21T09:27:13;7.95;;;4.03;;
56299;SDS011;42209;6.376;-10.782;2023-11-21T09:29:41;6.45;;;4.40;;
56299;SDS011;42209;6.376;-10.782;2023-11-21T09:32:10;6.18;;;3.50;;
56299;SDS011;42209;6.376;-10.782;2023-11-21T09:34:38;5.97;;;3.72;;
56299;SDS011;42209;6.376;-10.782;2023-11-21T09:37:07;6.32;;;4.18;;
56299;SDS011;42209;6.376;-10.782;2023-11-21T09:39:36;6.97;;;4.07;;
56299;SDS011;42209;6.376;-10.782;2023-11-21T09:42:08;7.43;;;4.15;;
56299;SDS011;42209;6.376;-10.782;2023-11-21T09:47:14;7.93;;;3.80;;
56299;SDS011;42209;6.376;-10.782;2023-11-21T09:49:49;6.43;;;4.25;;
56299;SDS011;42209;6.376;-10.782;2023-11-21T09:52:25;5.30;;;3.70;;
56299;SDS011;42209;6.376;-10.782;2023-11-21T09:54:55;4.57;;;3.45;;
56299;SDS011;42209;6.376;-10.782;2023-11-21T09:57:24;7.82;;;3.65;;
56299;SDS011;42209;6.376;-10.782;2023-11-21T09:59:54;9.55;;;5.38;;
56299;SDS011;42209;6.376;-10.782;2023-11-21T10:02:24;5.22;;;3.80;;
56299;SDS011;42209;6.376;-10.782;2023-11-21T10:04:54;7.75;;;4.50;;
56299;SDS011;42209;6.376;-10.782;2023-11-21T10:07:23;6.47;;;3.63;;
56299;SDS011;42209;6.376;-10.782;2023-11-21T10:09:52;7.50;;;3.70;;
56299;SDS011;42209;6.376;-10.782;2023-11-21T10:12:22;6.30;;;3.53;;
56299;SDS011;42209;6.376;-10.782;2023-11-21T10:14:52;6.22;;;3.22;;
56299;SDS011;42209;6.376;-10.782;2023-11-21T10:17:22;8.07;;;4.03;;
56299;SDS011;42209;6.376;-10.782;2023-11-21T10:19:53;5.47;;;3.42;;
56299;SDS011;42209;6.376;-10.782;2023-11-21T10:22:22;6.82;;;3.47;;
56299;SDS011;42209;6.376;-10.782;2023-11-21T10:24:53;8.55;;;4.28;;
56299;SDS011;42209;6.376;-10.782;2023-11-21T10:27:22;5.47;;;3.03;;
56299;SDS011;42209;6.376;-10.782;2023-11-21T10:29:51;6.53;;;4.00;;
56299;SDS011;42209;6.376;-10.782;2023-11-21T10:32:19;9.93;;;4.07;;
56299;SDS011;42209;6.376;-10.782;2023-11-21T10:34:57;7.07;;;4.13;;
56299;SDS011;42209;6.376;-10.782;2023-11-21T10:37:26;6.47;;;4.05;;
56299;SDS011;42209;6.376;-10.782;2023-11-21T10:39:58;4.88;;;3.38;;
56299;SDS011;42209;6.376;-10.782;2023-11-21T10:42:27;5.88;;;4.18;;
56299;SDS011;42209;6.376;-10.782;2023-11-21T10:44:56;6.68;;;3.83;;
56299;SDS011;42209;6.376;-10.782;2023-11-21T10:47:24;6.45;;;4.20;;
56299;SDS011;42209;6.376;-10.782;2023-11-21T10:49:53;6.40;;;4.65;;
56299;SDS011;42209;6.376;-10.782;2023-11-21T10:54:55;5.50;;;3.25;;
56299;SDS011;42209;6.376;-10.782;2023-11-21T10:57:25;5.95;;;3.85;;
56299;SDS011;42209;6.376;-10.782;2023-11-21T11:02:25;8.23;;;4.45;;
56299;SDS011;42209;6.376;-10.782;2023-11-21T11:04:55;6.70;;;4.00;;
56299;SDS011;42209;6.376;-10.782;2023-11-21T11:07:27;7.43;;;3.92;;
56299;SDS011;42209;6.376;-10.782;2023-11-21T11:09:56;5.72;;;4.00;;
56299;SDS011;42209;6.376;-10.782;2023-11-21T11:12:26;6.38;;;4.32;;
56299;SDS011;42209;6.376;-10.782;2023-11-21T11:14:55;5.43;;;4.07;;
56299;SDS011;42209;6.376;-10.782;2023-11-21T11:17:25;5.65;;;3.80;;
56299;SDS011;42209;6.376;-10.782;2023-11-21T11:19:54;4.55;;;3.03;;
56299;SDS011;42209;6.376;-10.782;2023-11-21T11:25:33;6.70;;;3.50;;
56299;SDS011;42209;6.376;-10.782;2023-11-21T11:28:17;5.47;;;3.55;;
56299;SDS011;42209;6.376;-10.782;2023-11-21T11:33:43;4.68;;;3.28;;
56299;SDS011;42209;6.376;-10.782;2023-11-21T11:36:39;7.00;;;3.67;;
56299;SDS011;42209;6.376;-10.782;2023-11-21T11:42:05;3.38;;;3.08;;
56299;SDS011;42209;6.376;-10.782;2023-11-21T11:47:14;5.70;;;3.65;;
56299;SDS011;42209;6.376;-10.782;2023-11-21T11:49:57;5.90;;;3.70;;
56299;SDS011;42209;6.376;-10.782;2023-11-21T11:52:35;7.03;;;3.60;;
56299;SDS011;42209;6.376;-10.782;2023-11-21T11:55:03;4.97;;;3.83;;
56299;SDS011;42209;6.376;-10.782;2023-11-21T11:57:34;7.32;;;4.38;;
56299;SDS011;42209;6.376;-10.782;2023-11-21T12:00:12;6.45;;;3.90;;
56299;SDS011;42209;6.376;-10.782;2023-11-21T12:05:10;6.53;;;3.38;;
56299;SDS011;42209;6.376;-10.782;2023-11-21T12:07:43;7.20;;;4.00;;
56299;SDS011;42209;6.376;-10.782;2023-11-21T12:10:23;5.03;;;3.65;;
56299;SDS011;42209;6.376;-10.782;2023-11-21T12:13:08;6.40;;;3.80;;
56299;SDS011;42209;6.376;-10.782;2023-11-21T12:15:37;6.55;;;3.70;;
56299;SDS011;42209;6.376;-10.782;2023-11-21T12:18:07;7.07;;;3.60;;
56299;SDS011;42209;6.376;-10.782;2023-11-21T12:20:36;6.57;;;4.07;;
56299;SDS011;42209;6.376;-10.782;2023-11-21T12:23:05;7.00;;;3.80;;
56299;SDS011;42209;6.376;-10.782;2023-11-21T12:25:34;6.60;;;3.38;;
56299;SDS011;42209;6.376;-10.782;2023-11-21T12:28:02;6.55;;;3.55;;
56299;SDS011;42209;6.376;-10.782;2023-11-21T12:30:32;5.28;;;3.08;;
56299;SDS011;42209;6.376;-10.782;2023-11-21T12:33:02;5.82;;;3.60;;
56299;SDS011;42209;6.376;-10.782;2023-11-21T12:35:33;5.93;;;3.63;;
56299;SDS011;42209;6.376;-10.782;2023-11-21T12:38:03;6.63;;;3.47;;
56299;SDS011;42209;6.376;-10.782;2023-11-21T12:40:33;5.68;;;4.05;;
56299;SDS011;42209;6.376;-10.782;2023-11-21T12:43:01;5.45;;;3.00;;
56299;SDS011;42209;6.376;-10.782;2023-11-21T12:45:30;6.32;;;3.83;;
56299;SDS011;42209;6.376;-10.782;2023-11-21T12:48:02;5.43;;;3.92;;
56299;SDS011;42209;6.376;-10.782;2023-11-21T12:50:32;7.50;;;3.47;;
56299;SDS011;42209;6.376;-10.782;2023-11-21T12:53:08;5.60;;;4.32;;
56299;SDS011;42209;6.376;-10.782;2023-11-21T12:55:39;5.20;;;3.53;;
56299;SDS011;42209;6.376;-10.782;2023-11-21T12:58:08;8.27;;;3.60;;
56299;SDS011;42209;6.376;-10.782;2023-11-21T13:00:39;4.85;;;3.05;;
56299;SDS011;42209;6.376;-10.782;2023-11-21T13:03:12;5.05;;;3.08;;
56299;SDS011;42209;6.376;-10.782;2023-11-21T13:05:42;5.88;;;3.72;;
56299;SDS011;42209;6.376;-10.782;2023-11-21T13:08:15;6.20;;;3.20;;
56299;SDS011;42209;6.376;-10.782;2023-11-21T13:10:44;5.35;;;3.05;;
56299;SDS011;42209;6.376;-10.782;2023-11-21T13:13:13;6.45;;;3.88;;
56299;SDS011;42209;6.376;-10.782;2023-11-21T13:18:20;5.30;;;3.10;;
56299;SDS011;42209;6.376;-10.782;2023-11-21T13:20:49;7.30;;;4.07;;
56299;SDS011;42209;6.376;-10.782;2023-11-21T13:23:18;6.38;;;3.25;;
56299;SDS011;42209;6.376;-10.782;2023-11-21T13:25:46;5.75;;;3.00;;
56299;SDS011;42209;6.376;-10.782;2023-11-21T13:28:27;5.25;;;3.55;;
56299;SDS011;42209;6.376;-10.782;2023-11-21T13:30:56;4.70;;;3.33;;
56299;SDS011;42209;6.376;-10.782;2023-11-21T13:33:24;8.80;;;3.80;;
56299;SDS011;42209;6.376;-10.782;2023-11-21T13:35:53;6.75;;;3.15;;
56299;SDS011;42209;6.376;-10.782;2023-11-21T13:40:51;8.10;;;3.22;;
56299;SDS011;42209;6.376;-10.782;2023-11-21T13:43:22;5.70;;;3.58;;
56299;SDS011;42209;6.376;-10.782;2023-11-21T13:45:52;5.57;;;2.97;;
56299;SDS011;42209;6.376;-10.782;2023-11-21T13:48:21;6.55;;;3.38;;
56299;SDS011;42209;6.376;-10.782;2023-11-21T13:50:49;6.50;;;3.20;;
56299;SDS011;42209;6.376;-10.782;2023-11-21T13:53:18;7.30;;;4.10;;
56299;SDS011;42209;6.376;-10.782;2023-11-21T13:58:15;5.93;;;3.10;;
56299;SDS011;42209;6.376;-10.782;2023-11-21T14:00:45;7.95;;;3.25;;
56299;SDS011;42209;6.376;-10.782;2023-11-21T14:03:13;6.32;;;3.53;;
56299;SDS011;42209;6.376;-10.782;2023-11-21T14:05:43;7.22;;;3.67;;
56299;SDS011;42209;6.376;-10.782;2023-11-21T14:08:12;5.93;;;3.13;;
56299;SDS011;42209;6.376;-10.782;2023-11-21T14:11:55;7.60;;;3.42;;
56299;SDS011;42209;6.376;-10.782;2023-11-21T14:14:25;7.32;;;4.40;;
56299;SDS011;42209;6.376;-10.782;2023-11-21T14:16:55;7.43;;;3.85;;
56299;SDS011;42209;6.376;-10.782;2023-11-21T16:54:13;7.10;;;3.15;;
56299;SDS011;42209;6.376;-10.782;2023-11-21T16:56:48;5.78;;;2.28;;
56299;SDS011;42209;6.376;-10.782;2023-11-21T16:59:17;7.32;;;3.45;;
56299;SDS011;42209;6.376;-10.782;2023-11-21T17:01:46;6.85;;;3.42;;
56299;SDS011;42209;6.376;-10.782;2023-11-21T17:04:15;5.40;;;2.60;;
56299;SDS011;42209;6.376;-10.782;2023-11-21T17:06:44;3.95;;;2.72;;
56299;SDS011;42209;6.376;-10.782;2023-11-21T17:09:13;7.40;;;3.28;;
56299;SDS011;42209;6.376;-10.782;2023-11-21T17:11:41;6.63;;;2.95;;
56299;SDS011;42209;6.376;-10.782;2023-11-21T17:14:12;5.50;;;2.72;;
56299;SDS011;42209;6.376;-10.782;2023-11-21T17:19:09;4.32;;;2.75;;
56299;SDS011;42209;6.376;-10.782;2023-11-21T17:24:06;5.20;;;2.75;;
56299;SDS011;42209;6.376;-10.782;2023-11-21T17:29:02;3.30;;;2.60;;
56299;SDS011;42209;6.376;-10.782;2023-11-21T17:31:31;5.97;;;2.17;;
56299;SDS011;42209;6.376;-10.782;2023-11-21T17:36:28;6.00;;;3.03;;
56299;SDS011;42209;6.376;-10.782;2023-11-21T17:38:56;6.07;;;2.53;;
56299;SDS011;42209;6.376;-10.782;2023-11-21T17:41:25;6.68;;;3.15;;
56299;SDS011;42209;6.376;-10.782;2023-11-21T17:43:53;7.55;;;2.85;;
56299;SDS011;42209;6.376;-10.782;2023-11-21T17:46:22;4.93;;;2.50;;
56299;SDS011;42209;6.376;-10.782;2023-11-21T17:48:52;6.63;;;2.85;;
56299;SDS011;42209;6.376;-10.782;2023-11-21T17:51:22;6.65;;;3.08;;
56299;SDS011;42209;6.376;-10.782;2023-11-21T17:53:50;9.52;;;3.03;;
56299;SDS011;42209;6.376;-10.782;2023-11-21T17:56:19;5.70;;;3.15;;
56299;SDS011;42209;6.376;-10.782;2023-11-21T18:01:15;5.07;;;2.90;;
56299;SDS011;42209;6.376;-10.782;2023-11-21T18:06:12;7.93;;;3.35;;
56299;SDS011;42209;6.376;-10.782;2023-11-21T18:08:41;6.00;;;2.92;;
56299;SDS011;42209;6.376;-10.782;2023-11-21T18:13:38;6.55;;;3.40;;
56299;SDS011;42209;6.376;-10.782;2023-11-21T18:16:06;6.13;;;3.88;;
56299;SDS011;42209;6.376;-10.782;2023-11-21T18:21:03;5.65;;;3.67;;
56299;SDS011;42209;6.376;-10.782;2023-11-21T18:23:31;8.65;;;3.80;;
56299;SDS011;42209;6.376;-10.782;2023-11-21T18:26:00;8.68;;;4.10;;
56299;SDS011;42209;6.376;-10.782;2023-11-21T18:28:29;6.30;;;3.90;;
56299;SDS011;42209;6.376;-10.782;2023-11-21T18:30:57;8.57;;;4.05;;
56299;SDS011;42209;6.376;-10.782;2023-11-21T18:33:26;8.18;;;4.45;;
56299;SDS011;42209;6.376;-10.782;2023-11-21T18:38:22;9.30;;;3.75;;
56299;SDS011;42209;6.376;-10.782;2023-11-21T18:40:51;7.13;;;4.18;;
56299;SDS011;42209;6.376;-10.782;2023-11-21T18:43:19;12.50;;;5.18;;
56299;SDS011;42209;6.376;-10.782;2023-11-21T18:45:48;8.32;;;4.15;;
56299;SDS011;42209;6.376;-10.782;2023-11-21T18:48:16;6.07;;;3.83;;
56299;SDS011;42209;6.376;-10.782;2023-11-21T18:50:46;7.28;;;4.30;;
56299;SDS011;42209;6.376;-10.782;2023-11-21T18:53:15;6.32;;;3.97;;
56299;SDS011;42209;6.376;-10.782;2023-11-21T18:58:12;4.95;;;3.75;;
56299;SDS011;42209;6.376;-10.782;2023-11-21T19:00:41;10.63;;;5.15;;
56299;SDS011;42209;6.376;-10.782;2023-11-21T19:03:10;9.27;;;4.07;;
56299;SDS011;42209;6.376;-10.782;2023-11-21T19:08:07;9.02;;;5.15;;
56299;SDS011;42209;6.376;-10.782;2023-11-21T19:10:35;10.98;;;5.55;;
56299;SDS011;42209;6.376;-10.782;2023-11-21T19:15:32;9.38;;;5.00;;
56299;SDS011;42209;6.376;-10.782;2023-11-21T19:18:01;9.73;;;5.43;;
56299;SDS011;42209;6.376;-10.782;2023-11-21T19:20:29;8.10;;;5.50;;
56299;SDS011;42209;6.376;-10.782;2023-11-21T19:22:58;7.35;;;5.53;;
56299;SDS011;42209;6.376;-10.782;2023-11-21T19:25:26;9.55;;;5.82;;
56299;SDS011;42209;6.376;-10.782;2023-11-21T19:30:23;9.65;;;4.93;;